Time;durP1;ratioP1;P1;durP2;ratioP2;P2;SDS_P1;SDS_P2;PMS_P1;PMS_P2;Temp;Humidity;BMP_temperature;BMP_pressure;BME280_temperature;BME280_humidity;BME280_pressure;Samples;Min_cycle;Max_cycle;Signal;HPM_P1;HPM_P2
2022/06/28 00:01:49;;;;;;;47.55;8.85;;;24.80;87.70;;;;;;5110194;28;20058;-70
2022/06/28 00:04:54;;;;;;;32.85;7.28;;;24.80;86.80;;;;;;5109926;28;20043;-70
2022/06/28 00:07:58;;;;;;;25.50;6.53;;;24.80;86.50;;;;;;5109709;28;20501;-70
2022/06/28 00:11:02;;;;;;;42.60;7.43;;;24.80;86.20;;;;;;5110130;28;20333;-70
2022/06/28 00:16:04;;;;;;;36.30;6.85;;;24.70;87.70;;;;;;5110442;28;20043;-70
2022/06/28 00:17:31;;;;;;;44.47;7.68;;;24.80;90.00;;;;;;5109240;28;20047;-70
2022/06/28 00:20:36;;;;;;;39.90;7.20;;;24.90;90.20;;;;;;5110650;28;20046;-71
2022/06/28 00:23:42;;;;;;;43.65;7.80;;;25.00;91.10;;;;;;5109977;28;20050;-70
2022/06/28 00:26:48;;;;;;;34.03;7.80;;;25.00;91.00;;;;;;5109697;28;20488;-70
2022/06/28 00:29:52;;;;;;;35.58;8.05;;;25.00;91.20;;;;;;5110059;28;20084;-70
2022/06/28 00:32:56;;;;;;;35.78;7.07;;;24.90;91.40;;;;;;5110034;28;20039;-70
2022/06/28 00:36:00;;;;;;;34.50;7.22;;;24.90;91.20;;;;;;5097003;28;20058;-69
2022/06/28 00:39:04;;;;;;;41.85;7.18;;;24.90;91.20;;;;;;5097486;28;20051;-70
2022/06/28 00:42:09;;;;;;;38.05;7.30;;;24.80;90.50;;;;;;5112742;28;20389;-70
2022/06/28 00:45:13;;;;;;;40.33;6.95;;;24.60;90.90;;;;;;5114037;28;20051;-70
2022/06/28 00:48:18;;;;;;;40.60;7.75;;;24.50;90.90;;;;;;5113234;28;20038;-70
2022/06/28 00:51:24;;;;;;;33.85;7.22;;;24.50;86.30;;;;;;5113684;28;20046;-70
2022/06/28 00:54:29;;;;;;;30.90;7.43;;;24.50;84.10;;;;;;5101197;28;20038;-71
2022/06/28 00:57:33;;;;;;;28.23;7.13;;;24.50;85.30;;;;;;5113748;28;20051;-70
2022/06/28 01:00:41;;;;;;;32.38;7.43;;;24.40;84.00;;;;;;5101418;28;20051;-70
2022/06/28 01:03:48;;;;;;;44.40;9.13;;;24.40;83.40;;;;;;5101748;28;20042;-70
2022/06/28 01:06:54;;;;;;;35.67;6.90;;;24.40;83.40;;;;;;5100852;28;20043;-70
2022/06/28 01:09:59;;;;;;;30.63;7.18;;;24.40;83.70;;;;;;5101268;28;20123;-70
2022/06/28 01:13:04;;;;;;;37.63;7.43;;;24.40;82.50;;;;;;5101324;28;20046;-70
2022/06/28 01:16:08;;;;;;;34.13;7.10;;;24.40;81.80;;;;;;5100524;28;20497;-70
2022/06/28 01:19:15;;;;;;;40.95;8.15;;;24.40;82.10;;;;;;5101087;28;20469;-70
2022/06/28 01:22:21;;;;;;;31.83;6.88;;;24.40;81.90;;;;;;5100983;28;20050;-69
2022/06/28 01:25:26;;;;;;;41.03;6.80;;;24.30;83.70;;;;;;5100830;28;20047;-69
2022/06/28 01:28:32;;;;;;;39.63;8.05;;;24.20;85.80;;;;;;5100506;28;20058;-69
2022/06/28 01:31:45;;;;;;;36.90;7.63;;;24.10;85.70;;;;;;5100801;28;20389;-70
2022/06/28 01:34:49;;;;;;;34.38;7.00;;;23.90;86.40;;;;;;5100866;28;20051;-69
2022/06/28 01:37:57;;;;;;;34.75;7.68;;;23.70;87.70;;;;;;5100268;28;20059;-69
2022/06/28 01:41:02;;;;;;;30.27;6.72;;;23.60;88.90;;;;;;5100395;28;20106;-69
2022/06/28 01:44:08;;;;;;;38.00;7.03;;;23.60;89.20;;;;;;5113491;28;20043;-69
2022/06/28 01:47:17;;;;;;;27.92;6.90;;;23.50;89.60;;;;;;5100151;28;20502;-69
2022/06/28 01:50:54;;;;;;;39.65;7.20;;;23.50;90.20;;;;;;5106664;28;20046;-69
2022/06/28 01:53:58;;;;;;;36.30;7.15;;;23.30;90.50;;;;;;5099735;28;20038;-69
2022/06/28 01:57:11;;;;;;;37.38;8.10;;;23.20;90.90;;;;;;5099570;28;20050;-69
2022/06/28 02:00:26;;;;;;;40.30;7.53;;;23.20;91.00;;;;;;5100238;28;20050;-69
2022/06/28 02:03:35;;;;;;;29.88;7.40;;;23.30;90.40;;;;;;5100050;28;20378;-69
2022/06/28 02:06:46;;;;;;;39.95;7.50;;;23.40;89.60;;;;;;5099243;28;20508;-69
2022/06/28 02:09:50;;;;;;;48.67;8.43;;;23.50;88.10;;;;;;5099995;28;20043;-70
2022/06/28 02:12:54;;;;;;;46.38;7.72;;;23.50;88.70;;;;;;5100047;28;20042;-70
2022/06/28 02:15:59;;;;;;;31.35;6.57;;;23.50;88.10;;;;;;5099717;28;20050;-69
2022/06/28 02:19:04;;;;;;;35.80;7.57;;;23.60;87.40;;;;;;5099795;28;20042;-70
2022/06/28 02:22:07;;;;;;;41.28;8.13;;;23.50;87.00;;;;;;5099951;28;20043;-70
2022/06/28 02:25:11;;;;;;;32.20;7.07;;;23.50;87.10;;;;;;5099489;28;20042;-69
2022/06/28 02:28:15;;;;;;;39.20;8.07;;;23.50;87.60;;;;;;5099376;28;20050;-70
2022/06/28 02:31:19;;;;;;;32.55;7.28;;;23.40;88.50;;;;;;5112436;28;20047;-71
2022/06/28 02:41:08;;;;;;;31.48;6.30;;;23.00;91.90;;;;;;5099494;28;20039;-70
2022/06/28 02:44:15;;;;;;;26.05;6.50;;;22.60;93.10;;;;;;5111902;28;20042;-69
2022/06/28 02:47:19;;;;;;;35.72;7.72;;;22.40;94.20;;;;;;5111153;28;20047;-69
2022/06/28 02:50:24;;;;;;;37.88;7.60;;;22.10;96.20;;;;;;5112074;28;20043;-69
2022/06/28 02:53:28;;;;;;;29.80;7.50;;;21.80;97.10;;;;;;5099396;28;20401;-70
2022/06/28 02:56:33;;;;;;;36.13;7.85;;;21.60;97.10;;;;;;5098808;28;20054;-70
2022/06/28 02:59:37;;;;;;;42.40;7.60;;;21.50;97.30;;;;;;5111863;28;20050;-70
2022/06/28 03:02:43;;;;;;;40.50;8.77;;;21.50;97.70;;;;;;5098955;28;20043;-70
2022/06/28 03:05:48;;;;;;;45.38;9.15;;;21.60;97.70;;;;;;5097872;28;20393;-70
2022/06/28 03:08:52;;;;;;;43.05;9.30;;;21.70;97.00;;;;;;5098756;28;20039;-69
2022/06/28 03:11:56;;;;;;;34.17;7.72;;;21.80;96.70;;;;;;5087195;28;20035;-70
2022/06/28 03:15:01;;;;;;;36.70;7.95;;;21.70;97.40;;;;;;5111585;28;20039;-70
2022/06/28 03:18:05;;;;;;;40.05;7.88;;;21.60;98.40;;;;;;5111075;28;20228;-70
2022/06/28 03:21:09;;;;;;;44.13;7.35;;;21.40;99.90;;;;;;5098812;28;20055;-69
2022/06/28 03:24:13;;;;;;;35.15;7.28;;;21.20;99.90;;;;;;5111247;28;20058;-69
2022/06/28 03:27:17;;;;;;;41.83;8.30;;;21.10;99.90;;;;;;5097727;28;20050;-70
2022/06/28 03:30:22;;;;;;;30.30;7.78;;;20.90;99.90;;;;;;5098387;28;20058;-69
2022/06/28 03:33:27;;;;;;;29.52;7.18;;;20.90;99.90;;;;;;5111082;28;20043;-69
2022/06/28 03:36:31;;;;;;;35.30;8.80;;;20.80;99.90;;;;;;5097894;28;20067;-70
2022/06/28 03:39:49;;;;;;;33.00;7.78;;;20.70;99.90;;;;;;5098313;28;20050;-69
2022/06/28 03:42:53;;;;;;;35.85;8.15;;;20.70;99.90;;;;;;5098625;28;20434;-70
2022/06/28 03:45:57;;;;;;;42.05;9.00;;;20.70;99.90;;;;;;5098033;28;20050;-70
2022/06/28 03:49:12;;;;;;;46.70;10.23;;;20.70;99.90;;;;;;5098119;28;20074;-69
2022/06/28 03:52:30;;;;;;;38.92;8.40;;;20.70;99.90;;;;;;5107407;28;20066;-70
2022/06/28 03:55:54;;;;;;;40.85;8.15;;;20.60;99.90;;;;;;5111070;28;20042;-70
2022/06/28 03:58:58;;;;;;;40.90;9.48;;;20.40;99.90;;;;;;5110040;28;20066;-69
2022/06/28 04:02:02;;;;;;;46.80;10.20;;;20.50;99.90;;;;;;5110133;28;20050;-70
2022/06/28 04:05:07;;;;;;;36.63;8.77;;;20.50;99.90;;;;;;5109555;28;20493;-70
2022/06/28 04:08:12;;;;;;;41.50;8.00;;;20.70;99.90;;;;;;5109439;28;20039;-69
2022/06/28 04:11:21;;;;;;;34.67;8.57;;;20.80;99.90;;;;;;5110791;28;20050;-70
2022/06/28 04:14:26;;;;;;;34.42;7.68;;;20.90;99.90;;;;;;5109638;28;20044;-70
2022/06/28 04:17:30;;;;;;;36.40;9.15;;;21.00;99.90;;;;;;5113653;28;20046;-69
2022/06/28 04:21:09;;;;;;;29.70;9.13;;;21.10;99.90;;;;;;5114549;28;20042;-70
2022/06/28 04:24:15;;;;;;;39.17;8.98;;;21.20;99.90;;;;;;5113746;28;20050;-71
2022/06/28 04:27:35;;;;;;;39.90;9.70;;;21.30;99.90;;;;;;5113444;28;20058;-70
2022/06/28 04:30:40;;;;;;;57.47;10.07;;;21.40;99.90;;;;;;5110635;28;20047;-69
2022/06/28 04:33:44;;;;;;;44.33;10.18;;;21.40;99.90;;;;;;5114230;28;20054;-70
2022/06/28 04:36:50;;;;;;;28.52;7.88;;;21.50;99.90;;;;;;5113012;28;20501;-70
2022/06/28 04:39:54;;;;;;;29.08;8.20;;;21.80;99.90;;;;;;5113453;28;20050;-70
2022/06/28 04:43:03;;;;;;;36.65;8.75;;;22.20;99.90;;;;;;5113740;28;20050;-70
2022/06/28 04:46:07;;;;;;;40.00;8.23;;;22.50;99.90;;;;;;5113757;28;20055;-70
2022/06/28 04:49:14;;;;;;;35.28;8.80;;;22.60;99.90;;;;;;5113354;28;20054;-70
2022/06/28 04:52:21;;;;;;;33.10;8.82;;;22.60;99.90;;;;;;5113128;28;20042;-70
2022/06/28 04:55:30;;;;;;;34.10;9.38;;;22.90;99.90;;;;;;5112928;28;20047;-72
2022/06/28 04:58:43;;;;;;;39.85;8.73;;;23.00;99.90;;;;;;5113131;28;20382;-71
2022/06/28 05:01:48;;;;;;;46.50;7.80;;;23.10;99.90;;;;;;5112711;28;20074;-70
2022/06/28 05:04:53;;;;;;;46.97;8.70;;;23.20;99.90;;;;;;5114127;28;20387;-69
2022/06/28 05:08:02;;;;;;;47.08;8.70;;;23.20;99.90;;;;;;5113112;28;20043;-70
2022/06/28 05:11:16;;;;;;;41.28;8.63;;;23.10;99.90;;;;;;5112490;28;20062;-70
2022/06/28 05:14:43;;;;;;;47.38;9.82;;;23.00;99.90;;;;;;5114080;28;20047;-70
2022/06/28 05:17:49;;;;;;;30.13;8.27;;;23.00;99.90;;;;;;5112449;28;20035;-70
2022/06/28 05:20:53;;;;;;;38.03;8.60;;;23.30;99.90;;;;;;5112456;28;20043;-70
2022/06/28 05:23:57;;;;;;;25.70;6.82;;;23.50;99.90;;;;;;5112571;28;20050;-71
2022/06/28 05:27:08;;;;;;;42.13;8.75;;;23.80;99.90;;;;;;5111955;28;20050;-70
2022/06/28 05:30:15;;;;;;;29.85;7.22;;;23.90;99.60;;;;;;5112627;28;20030;-70
2022/06/28 05:33:19;;;;;;;38.80;8.68;;;24.90;98.30;;;;;;5100279;28;20043;-68
2022/06/28 05:36:23;;;;;;;44.25;8.93;;;26.20;96.30;;;;;;5111356;28;20042;-69
2022/06/28 05:39:27;;;;;;;37.78;8.68;;;27.30;95.20;;;;;;5113597;28;20393;-68
2022/06/28 05:42:31;;;;;;;47.50;8.85;;;27.60;94.00;;;;;;5112708;28;20047;-68
2022/06/28 05:45:35;;;;;;;42.20;9.20;;;27.40;93.00;;;;;;5112074;28;20362;-68
2022/06/28 05:48:39;;;;;;;39.10;8.35;;;27.00;92.20;;;;;;5112730;28;20401;-69
2022/06/28 05:51:43;;;;;;;34.55;8.18;;;27.00;92.30;;;;;;5112502;28;20197;-68
2022/06/28 05:54:50;;;;;;;45.63;8.48;;;26.90;92.10;;;;;;5088392;28;20039;-68
2022/06/28 05:57:55;;;;;;;51.00;9.40;;;27.00;91.70;;;;;;5099934;28;20055;-68
2022/06/28 06:01:00;;;;;;;44.72;9.13;;;27.50;91.20;;;;;;5100114;28;20035;-68
2022/06/28 06:04:04;;;;;;;38.17;9.02;;;28.00;90.40;;;;;;5113593;28;20051;-66
2022/06/28 06:07:08;;;;;;;51.10;8.68;;;27.80;90.50;;;;;;5087448;28;20042;-67
2022/06/28 06:10:12;;;;;;;55.42;10.48;;;27.10;91.10;;;;;;5100534;28;20039;-70
2022/06/28 06:13:17;;;;;;;47.22;9.95;;;26.90;90.80;;;;;;5100188;28;20051;-66
2022/06/28 06:16:21;;;;;;;39.13;9.57;;;26.70;91.50;;;;;;5088485;28;20041;-69
2022/06/28 06:19:26;;;;;;;58.90;9.27;;;27.10;90.90;;;;;;5099647;28;20042;-69
2022/06/28 06:22:30;;;;;;;48.38;9.38;;;27.10;91.70;;;;;;5099505;28;20042;-70
2022/06/28 06:25:38;;;;;;;40.25;8.55;;;26.90;90.90;;;;;;5099693;28;20042;-69
2022/06/28 06:28:43;;;;;;;49.67;9.68;;;27.30;91.30;;;;;;5099422;28;20038;-69
2022/06/28 06:31:47;;;;;;;45.08;9.95;;;27.70;91.10;;;;;;5111358;28;20038;-70
2022/06/28 06:35:00;;;;;;;42.80;9.52;;;27.70;91.30;;;;;;5111672;28;20047;-69
2022/06/28 06:38:04;;;;;;;49.92;9.85;;;28.10;90.80;;;;;;5099121;28;20059;-69
2022/06/28 06:41:08;;;;;;;45.33;8.85;;;28.30;90.30;;;;;;5087598;28;20043;-69
2022/06/28 06:44:14;;;;;;;44.25;8.40;;;28.80;90.30;;;;;;5099464;28;20113;-70
2022/06/28 06:47:19;;;;;;;40.63;8.52;;;29.30;90.00;;;;;;5098562;28;20038;-70
2022/06/28 06:50:24;;;;;;;40.25;9.43;;;29.70;89.80;;;;;;5099083;28;20063;-70
2022/06/28 06:53:29;;;;;;;47.40;8.75;;;29.80;87.30;;;;;;5111165;28;20046;-70
2022/06/28 06:56:33;;;;;;;38.25;8.75;;;29.30;89.30;;;;;;5098549;28;20035;-70
2022/06/28 06:59:37;;;;;;;37.15;8.45;;;28.90;89.80;;;;;;5098440;28;20042;-70
2022/06/28 07:02:44;;;;;;;44.13;8.68;;;28.70;90.30;;;;;;5098931;28;20394;-70
2022/06/28 07:05:49;;;;;;;34.30;9.50;;;28.80;90.40;;;;;;5098459;28;20042;-69
2022/06/28 07:08:53;;;;;;;42.00;8.55;;;28.70;90.70;;;;;;5098504;28;20501;-70
2022/06/28 07:11:58;;;;;;;35.70;7.55;;;28.70;90.70;;;;;;5098911;28;20390;-70
2022/06/28 07:15:02;;;;;;;52.72;9.63;;;28.60;91.10;;;;;;5098794;28;20090;-71
2022/06/28 07:18:12;;;;;;;37.42;8.35;;;28.30;91.40;;;;;;5087575;28;20050;-70
2022/06/28 07:21:16;;;;;;;58.30;9.65;;;28.20;91.50;;;;;;5111565;28;20050;-70
2022/06/28 07:24:19;;;;;;;41.08;9.18;;;28.30;91.40;;;;;;5098956;28;20051;-70
2022/06/28 07:27:24;;;;;;;47.80;9.50;;;28.50;91.50;;;;;;5098185;28;20547;-70
2022/06/28 07:30:27;;;;;;;43.65;10.35;;;28.80;91.40;;;;;;5097943;28;20489;-70
2022/06/28 07:33:31;;;;;;;44.63;8.57;;;28.80;91.30;;;;;;5098453;28;20394;-69
2022/06/28 07:36:36;;;;;;;38.78;9.40;;;28.70;91.00;;;;;;5098036;28;20426;-69
2022/06/28 07:39:40;;;;;;;41.47;8.63;;;28.70;91.10;;;;;;5086637;28;20050;-70
2022/06/28 07:43:03;;;;;;;37.42;7.50;;;28.90;91.10;;;;;;5110750;28;20054;-70
2022/06/28 07:46:14;;;;;;;105.70;15.27;;;29.10;90.90;;;;;;5097837;28;20402;-71
2022/06/28 07:49:19;;;;;;;43.38;9.88;;;29.00;91.60;;;;;;5099094;28;20047;-69
2022/06/28 07:52:39;;;;;;;54.67;9.75;;;29.00;91.60;;;;;;5107282;28;20492;-70
2022/06/28 07:55:46;;;;;;;56.10;9.88;;;29.20;91.90;;;;;;5109651;28;20434;-70
2022/06/28 07:59:08;;;;;;;41.85;9.95;;;29.20;91.50;;;;;;5109956;28;20409;-70
2022/06/28 08:02:14;;;;;;;49.55;10.63;;;28.80;91.50;;;;;;5109941;28;20047;-69
2022/06/28 08:05:22;;;;;;;44.80;8.77;;;28.00;92.40;;;;;;5110237;28;20394;-70
2022/06/28 08:08:27;;;;;;;58.85;9.77;;;26.90;93.70;;;;;;5109369;28;20054;-70
2022/06/28 08:11:32;;;;;;;61.03;10.00;;;26.80;94.10;;;;;;5109548;28;20039;-70
2022/06/28 08:14:37;;;;;;;72.15;10.93;;;27.30;94.00;;;;;;5109645;28;20027;-70
2022/06/28 08:17:42;;;;;;;57.50;9.48;;;27.60;93.60;;;;;;5108840;28;20046;-70
2022/06/28 08:20:46;;;;;;;42.03;8.05;;;28.00;93.10;;;;;;5110583;28;20047;-69
2022/06/28 08:23:51;;;;;;;46.38;8.82;;;28.40;92.90;;;;;;5109228;28;20039;-70
2022/06/28 08:26:55;;;;;;;37.67;9.57;;;28.70;92.10;;;;;;5109368;28;20051;-69
2022/06/28 08:29:59;;;;;;;49.42;9.85;;;29.00;90.90;;;;;;5109449;28;20051;-70
2022/06/28 08:33:03;;;;;;;50.40;10.32;;;28.90;91.50;;;;;;5108906;28;20034;-69
2022/06/28 08:36:07;;;;;;;37.38;9.23;;;28.90;91.20;;;;;;5109308;28;20038;-70
2022/06/28 08:39:11;;;;;;;40.85;8.63;;;29.00;90.50;;;;;;5110594;28;20054;-69
2022/06/28 08:42:25;;;;;;;56.58;10.02;;;29.00;90.30;;;;;;5110639;28;20497;-69
2022/06/28 08:45:30;;;;;;;46.47;9.63;;;29.00;90.80;;;;;;5110277;28;20042;-69
2022/06/28 08:48:41;;;;;;;49.47;10.75;;;29.20;90.30;;;;;;5108945;28;20051;-69
2022/06/28 08:51:49;;;;;;;37.63;8.98;;;29.40;90.00;;;;;;5107975;28;20039;-70
2022/06/28 08:54:53;;;;;;;45.58;10.02;;;29.30;90.30;;;;;;5109347;28;20050;-70
2022/06/28 08:58:04;;;;;;;44.00;9.45;;;29.40;88.90;;;;;;5108855;28;20051;-70
2022/06/28 09:01:13;;;;;;;55.85;10.30;;;29.20;90.90;;;;;;5109215;28;20046;-70
2022/06/28 09:04:17;;;;;;;38.13;9.38;;;28.70;90.70;;;;;;5113923;28;20054;-70
2022/06/28 09:07:22;;;;;;;48.88;9.43;;;28.60;90.40;;;;;;5112762;28;20047;-69
2022/06/28 09:10:27;;;;;;;57.53;8.82;;;29.30;90.00;;;;;;5113747;28;20038;-69
2022/06/28 09:13:33;;;;;;;40.85;9.32;;;29.80;89.00;;;;;;5113281;28;20505;-69
2022/06/28 09:16:37;;;;;;;44.38;9.95;;;30.20;89.10;;;;;;5113204;28;20050;-69
2022/06/28 09:19:41;;;;;;;52.25;10.00;;;30.80;87.70;;;;;;5113105;28;20512;-70
2022/06/28 09:22:46;;;;;;;49.38;8.43;;;30.70;86.20;;;;;;5113037;28;20044;-70
2022/06/28 09:25:52;;;;;;;44.97;8.82;;;30.60;87.10;;;;;;5100396;28;20050;-70
2022/06/28 09:28:56;;;;;;;46.67;9.68;;;31.20;85.40;;;;;;5114429;28;20051;-69
2022/06/28 09:32:02;;;;;;;48.97;9.63;;;30.60;83.70;;;;;;5112749;28;20043;-69
2022/06/28 09:35:10;;;;;;;56.15;10.20;;;30.70;85.80;;;;;;5113846;28;20035;-69
2022/06/28 09:38:28;;;;;;;49.10;10.38;;;29.60;90.00;;;;;;5113730;28;20047;-69
2022/06/28 09:41:32;;;;;;;43.22;9.65;;;29.20;89.80;;;;;;5114005;28;20058;-69
2022/06/28 09:44:36;;;;;;;48.08;10.35;;;28.70;90.70;;;;;;5113221;28;20500;-69
2022/06/28 09:47:43;;;;;;;51.10;10.38;;;28.40;90.40;;;;;;5112664;28;20055;-70
2022/06/28 09:50:57;;;;;;;46.60;10.32;;;28.50;90.20;;;;;;5112123;28;20039;-69
2022/06/28 09:54:11;;;;;;;42.88;10.80;;;28.80;90.20;;;;;;5112776;28;20039;-69
2022/06/28 09:57:18;;;;;;;55.38;10.95;;;29.00;89.40;;;;;;5112310;28;20493;-70
2022/06/28 10:00:25;;;;;;;60.90;10.73;;;29.10;89.90;;;;;;5112614;28;20382;-71
2022/06/28 10:03:29;;;;;;;45.95;11.63;;;29.00;90.00;;;;;;5112419;28;20050;-69
2022/06/28 10:06:34;;;;;;;50.05;10.75;;;28.70;90.30;;;;;;5112078;28;20054;-70
2022/06/28 10:09:38;;;;;;;47.20;9.32;;;28.50;90.30;;;;;;5112478;28;20042;-70
2022/06/28 10:16:21;;;;;;;42.42;10.45;;;28.30;90.10;;;;;;5099189;28;20542;-70
2022/06/28 10:19:26;;;;;;;57.15;10.50;;;28.30;90.40;;;;;;5113255;28;20050;-70
2022/06/28 10:22:31;;;;;;;44.95;9.25;;;28.40;90.00;;;;;;5113491;28;20725;-69
2022/06/28 10:25:35;;;;;;;57.40;10.57;;;28.50;89.50;;;;;;5104480;28;20054;-70
2022/06/28 10:28:47;;;;;;;49.45;10.30;;;28.70;89.40;;;;;;5113293;28;20673;-68
2022/06/28 10:31:51;;;;;;;41.15;10.25;;;29.00;89.20;;;;;;5111634;28;20078;-69
2022/06/28 10:34:55;;;;;;;48.08;10.27;;;29.10;87.70;;;;;;5112909;28;20046;-70
2022/06/28 10:38:19;;;;;;;65.45;10.55;;;29.40;90.00;;;;;;5112595;28;20066;-70
2022/06/28 10:41:38;;;;;;;52.13;11.20;;;29.50;90.20;;;;;;5100251;28;20066;-70
2022/06/28 10:44:46;;;;;;;48.97;10.48;;;29.60;90.70;;;;;;5112556;28;20042;-69
2022/06/28 10:48:10;;;;;;;56.42;9.70;;;29.50;90.80;;;;;;5111104;28;20047;-70
2022/06/28 10:51:14;;;;;;;53.75;9.60;;;29.50;90.70;;;;;;5118982;27;20504;-69
2022/06/28 10:54:18;;;;;;;48.28;10.23;;;29.50;91.70;;;;;;5132306;27;20042;-69
2022/06/28 10:57:27;;;;;;;59.58;9.52;;;29.30;92.70;;;;;;5131892;27;20053;-70
2022/06/28 11:00:34;;;;;;;41.95;9.88;;;29.00;92.20;;;;;;5132304;27;20046;-70
2022/06/28 11:04:07;;;;;;;41.88;9.20;;;28.90;92.50;;;;;;5132125;27;20046;-71
2022/06/28 11:07:25;;;;;;;43.33;9.20;;;29.30;92.10;;;;;;5131546;27;20042;-68
2022/06/28 11:10:29;;;;;;;56.15;11.50;;;29.70;92.50;;;;;;5132122;27;20042;-69
2022/06/28 11:13:33;;;;;;;45.00;10.10;;;29.90;92.30;;;;;;5131904;27;21073;-69
2022/06/28 11:16:45;;;;;;;46.35;9.65;;;30.10;92.00;;;;;;5131372;27;20038;-70
2022/06/28 11:19:53;;;;;;;37.80;8.45;;;30.20;91.80;;;;;;5131967;27;20057;-70
2022/06/28 11:22:57;;;;;;;47.78;9.57;;;30.00;91.20;;;;;;5131162;27;20066;-68
2022/06/28 11:29:39;;;;;;;43.13;8.95;;;29.50;91.20;;;;;;5131430;27;20038;-69
2022/06/28 11:32:50;;;;;;;45.67;8.50;;;29.20;91.60;;;;;;5131299;27;20046;-70
2022/06/28 11:36:00;;;;;;;39.20;8.05;;;29.20;91.90;;;;;;5109723;27;20034;-68
2022/06/28 11:39:23;;;;;;;41.22;8.88;;;29.30;92.00;;;;;;5084138;28;20031;-68
2022/06/28 11:42:32;;;;;;;47.90;8.52;;;29.40;91.60;;;;;;5074829;28;20051;-69
2022/06/28 11:45:41;;;;;;;45.40;8.20;;;29.50;91.20;;;;;;5078274;28;20115;-68
2022/06/28 11:48:49;;;;;;;35.72;7.00;;;29.40;91.10;;;;;;5067212;28;20398;-69
2022/06/28 11:51:54;;;;;;;36.63;6.45;;;29.30;90.10;;;;;;5071156;28;20047;-68
2022/06/28 11:54:58;;;;;;;39.70;6.18;;;29.30;90.30;;;;;;5066049;28;20039;-69
2022/06/28 11:58:18;;;;;;;37.63;5.90;;;29.40;89.10;;;;;;5089587;28;20067;-70
2022/06/28 12:01:24;;;;;;;35.20;5.80;;;29.70;88.40;;;;;;5090685;28;20043;-73
2022/06/28 12:04:30;;;;;;;23.58;4.57;;;30.20;88.00;;;;;;5090748;28;20497;-69
2022/06/28 12:07:44;;;;;;;29.85;6.25;;;30.80;87.40;;;;;;5089873;28;20497;-69
2022/06/28 12:10:47;;;;;;;36.72;6.18;;;31.10;86.70;;;;;;5090638;28;20047;-69
2022/06/28 12:14:09;;;;;;;26.98;5.60;;;31.00;85.90;;;;;;5090041;28;20067;-70
2022/06/28 12:17:14;;;;;;;36.10;6.50;;;30.60;85.50;;;;;;5089820;28;20047;-69
2022/06/28 12:20:20;;;;;;;28.50;5.57;;;30.30;87.10;;;;;;5090004;28;20485;-69
2022/06/28 12:23:26;;;;;;;29.30;6.05;;;30.00;87.60;;;;;;5099238;28;20047;-69
2022/06/28 12:26:42;;;;;;;36.45;7.50;;;29.60;89.00;;;;;;5070035;28;20039;-68
2022/06/28 12:30:00;;;;;;;35.45;6.78;;;29.30;90.40;;;;;;5079023;28;20485;-69
2022/06/28 12:33:07;;;;;;;30.27;6.28;;;29.40;91.10;;;;;;5078601;28;20063;-69
2022/06/28 12:36:12;;;;;;;38.13;7.40;;;29.70;91.70;;;;;;5076987;28;20391;-68
2022/06/28 12:39:19;;;;;;;38.30;7.38;;;30.30;91.50;;;;;;5093819;28;20399;-68
2022/06/28 12:42:32;;;;;;;45.10;7.63;;;30.80;91.10;;;;;;5093579;28;20062;-68
2022/06/28 12:45:41;;;;;;;40.30;8.18;;;31.10;91.40;;;;;;5095245;28;20050;-68
2022/06/28 12:48:46;;;;;;;33.83;6.32;;;31.40;91.20;;;;;;5096084;28;20039;-68
2022/06/28 12:51:52;;;;;;;33.33;7.45;;;31.60;90.60;;;;;;5085542;28;20506;-68
2022/06/28 12:54:58;;;;;;;26.30;5.47;;;32.00;90.30;;;;;;5102947;28;20042;-68
2022/06/28 12:58:02;;;;;;;42.88;7.22;;;32.10;88.20;;;;;;5102159;28;20065;-69
2022/06/28 13:01:14;;;;;;;30.13;5.60;;;31.80;88.00;;;;;;5096382;28;20044;-69
2022/06/28 13:04:21;;;;;;;28.38;6.15;;;31.50;88.20;;;;;;5107425;28;20046;-69
2022/06/28 13:07:25;;;;;;;29.77;6.05;;;31.00;87.10;;;;;;5090248;28;20042;-69
2022/06/28 13:10:31;;;;;;;28.00;5.15;;;30.50;88.90;;;;;;5108104;28;20039;-68
2022/06/28 13:13:35;;;;;;;54.58;8.00;;;29.70;88.70;;;;;;5075952;28;20035;-69
2022/06/28 13:16:40;;;;;;;30.67;4.78;;;29.20;93.30;;;;;;5076882;28;20043;-69
2022/06/28 13:19:44;;;;;;;24.15;5.70;;;28.00;92.60;;;;;;5100965;28;20038;-71
2022/06/28 13:22:48;;;;;;;28.48;5.32;;;27.00;93.50;;;;;;5105175;28;20038;-67
2022/06/28 13:25:53;;;;;;;20.95;5.07;;;26.50;94.10;;;;;;5107550;28;20042;-68
2022/06/28 13:28:59;;;;;;;23.00;5.13;;;26.60;92.30;;;;;;5096561;28;20046;-67
2022/06/28 13:32:03;;;;;;;18.83;4.22;;;27.00;92.30;;;;;;5096703;28;20047;-66
2022/06/28 13:35:09;;;;;;;25.67;4.70;;;27.40;91.30;;;;;;5092618;28;20497;-68
2022/06/28 13:38:15;;;;;;;22.17;4.55;;;27.90;91.20;;;;;;5110803;28;20397;-70
2022/06/28 13:41:19;;;;;;;20.98;4.72;;;28.50;90.50;;;;;;5112060;28;20044;-71
2022/06/28 13:44:23;;;;;;;29.52;4.63;;;29.10;85.60;;;;;;5098176;28;20050;-71
2022/06/28 13:47:28;;;;;;;22.23;4.97;;;29.10;88.50;;;;;;5104394;28;20525;-71
2022/06/28 13:50:32;;;;;;;29.77;5.13;;;29.50;85.60;;;;;;5111516;28;20062;-70
2022/06/28 13:53:37;;;;;;;21.23;4.55;;;29.70;86.30;;;;;;5093455;28;20374;-70
2022/06/28 13:56:41;;;;;;;27.85;5.72;;;29.70;90.90;;;;;;5106193;28;20046;-70
2022/06/28 13:59:48;;;;;;;33.47;6.22;;;30.10;90.60;;;;;;5108492;28;20031;-70
2022/06/28 14:02:52;;;;;;;26.38;4.43;;;30.30;90.10;;;;;;5108606;28;20043;-69
2022/06/28 14:05:57;;;;;;;24.17;5.40;;;30.30;90.40;;;;;;5097229;27;20058;-70
2022/06/28 14:09:04;;;;;;;24.58;5.55;;;30.00;90.90;;;;;;5072569;28;20067;-70
2022/06/28 14:12:10;;;;;;;24.77;5.30;;;29.70;91.50;;;;;;5080102;28;20043;-70
2022/06/28 14:15:15;;;;;;;33.28;5.68;;;29.60;91.50;;;;;;5087004;27;20038;-69
2022/06/28 14:18:21;;;;;;;29.77;5.75;;;28.90;92.60;;;;;;5081642;27;20047;-68
2022/06/28 14:21:26;;;;;;;28.35;5.78;;;28.40;93.00;;;;;;5103173;28;20060;-69
2022/06/28 14:24:30;;;;;;;30.98;5.63;;;28.20;93.40;;;;;;5097628;28;20055;-69
2022/06/28 14:27:34;;;;;;;34.72;6.40;;;28.20;93.30;;;;;;5097890;28;20497;-69
2022/06/28 14:30:39;;;;;;;28.30;6.18;;;28.10;93.80;;;;;;5080764;28;20035;-71
2022/06/28 14:33:44;;;;;;;32.55;6.18;;;27.60;94.00;;;;;;5112971;27;20031;-70
2022/06/28 14:36:48;;;;;;;26.52;5.88;;;27.40;94.50;;;;;;5108678;28;20046;-70
2022/06/28 14:39:53;;;;;;;24.02;5.35;;;27.40;94.70;;;;;;5100079;28;20047;-70
2022/06/28 14:42:57;;;;;;;30.10;5.85;;;27.50;94.80;;;;;;5100608;28;20427;-70
2022/06/28 14:46:01;;;;;;;32.00;6.18;;;27.50;95.10;;;;;;5103018;28;20042;-70
2022/06/28 14:49:05;;;;;;;33.80;6.47;;;27.60;95.00;;;;;;5113431;27;20047;-70
2022/06/28 14:52:09;;;;;;;34.00;6.35;;;27.50;95.10;;;;;;5104561;28;20411;-69
2022/06/28 14:55:13;;;;;;;48.10;6.25;;;27.50;94.90;;;;;;5101453;28;20133;-69
2022/06/28 14:58:19;;;;;;;31.77;6.68;;;27.40;94.70;;;;;;5109730;28;20043;-70
2022/06/28 15:01:24;;;;;;;35.50;6.20;;;27.30;94.20;;;;;;5097167;28;20073;-68
2022/06/28 15:04:28;;;;;;;31.92;5.18;;;27.50;94.60;;;;;;5108322;27;20047;-69
2022/06/28 15:07:32;;;;;;;29.33;6.63;;;27.90;94.20;;;;;;5107261;28;20043;-68
2022/06/28 15:10:37;;;;;;;31.23;6.25;;;28.30;93.10;;;;;;5103544;28;20066;-68
2022/06/28 15:13:43;;;;;;;32.13;5.25;;;28.60;92.30;;;;;;5116127;27;20042;-70
2022/06/28 15:16:46;;;;;;;23.88;5.50;;;29.10;91.40;;;;;;5090857;28;20043;-69
2022/06/28 15:19:50;;;;;;;28.00;5.68;;;29.80;91.40;;;;;;5101887;28;20488;-69
2022/06/28 15:33:01;;;;;;;35.00;4.88;;;31.20;88.90;;;;;;5107629;28;20046;-70
2022/06/28 15:36:05;;;;;;;23.25;5.70;;;31.30;84.70;;;;;;5107689;28;20050;-70
2022/06/28 15:39:10;;;;;;;24.15;5.35;;;31.10;84.60;;;;;;5098910;28;20031;-71
2022/06/28 15:42:13;;;;;;;21.25;4.63;;;31.40;86.10;;;;;;5107802;28;20042;-70
2022/06/28 15:45:17;;;;;;;25.10;4.53;;;31.10;84.50;;;;;;5101965;28;20051;-70
2022/06/28 15:48:21;;;;;;;29.35;6.18;;;30.70;87.40;;;;;;5101885;28;20043;-70
2022/06/28 15:51:25;;;;;;;27.67;5.70;;;30.20;88.40;;;;;;5105109;27;20058;-70
2022/06/28 15:54:29;;;;;;;27.00;5.93;;;30.40;88.80;;;;;;5108913;28;20374;-70
2022/06/28 15:57:34;;;;;;;33.60;5.72;;;30.50;89.60;;;;;;5112787;27;20047;-70
2022/06/28 16:00:38;;;;;;;28.75;5.35;;;30.40;88.70;;;;;;5105158;28;20050;-70
2022/06/28 16:03:42;;;;;;;29.95;5.75;;;30.00;89.50;;;;;;5095873;28;20394;-70
2022/06/28 16:06:46;;;;;;;27.50;6.13;;;29.90;90.20;;;;;;5109539;27;20042;-70
2022/06/28 16:09:50;;;;;;;24.25;5.50;;;29.70;90.20;;;;;;5109197;28;20044;-71
2022/06/28 16:12:56;;;;;;;24.55;6.45;;;29.50;90.70;;;;;;5109747;28;20050;-71
2022/06/28 16:16:01;;;;;;;22.50;5.30;;;29.50;90.60;;;;;;5085664;28;20042;-70
2022/06/28 16:19:05;;;;;;;23.60;4.80;;;29.70;90.60;;;;;;5110107;28;20082;-70
2022/06/28 16:22:09;;;;;;;31.65;7.00;;;29.90;90.50;;;;;;5110432;28;20047;-70